createdAt,value
2019-01-05T00:00:43.980Z,26.77
2019-01-05T00:03:28.056Z,25.67
2019-01-05T00:06:22.296Z,25.83
2019-01-05T00:09:10.442Z,26.37
2019-01-05T00:12:13.520Z,29.40
2019-01-05T00:15:00.337Z,26.93
2019-01-05T00:17:49.057Z,27.43
2019-01-05T00:20:35.751Z,26.47
2019-01-05T00:23:22.493Z,27.63
2019-01-05T00:26:19.545Z,28.23
2019-01-05T00:29:06.444Z,26.03
2019-01-05T00:31:53.899Z,26.63
2019-01-05T00:34:54.547Z,27.23
2019-01-05T00:37:41.597Z,26.10
2019-01-05T00:40:32.388Z,29.57
2019-01-05T00:43:23.039Z,27.23
2019-01-05T00:46:28.596Z,28.03
2019-01-05T00:49:19.265Z,29.50
2019-01-05T00:52:25.550Z,37.27
2019-01-05T00:55:14.550Z,26.97
2019-01-05T00:58:01.175Z,26.43
2019-01-05T01:00:55.560Z,26.33
2019-01-05T01:03:46.819Z,26.10
2019-01-05T01:06:49.794Z,27.53
2019-01-05T01:09:38.116Z,25.80
2019-01-05T01:12:25.249Z,26.53
2019-01-05T01:15:28.033Z,27.13
2019-01-05T01:18:15.637Z,25.10
2019-01-05T01:21:03.838Z,25.07
2019-01-05T01:23:55.403Z,24.93
2019-01-05T01:26:52.369Z,26.10
2019-01-05T01:29:47.664Z,25.80
2019-01-05T01:32:34.548Z,26.07
2019-01-05T01:35:21.679Z,24.27
2019-01-05T01:38:47.912Z,24.37
2019-01-05T01:41:39.857Z,31.37
2019-01-05T01:44:46.263Z,25.90
2019-01-05T01:47:34.698Z,24.00
2019-01-05T01:50:25.874Z,24.50
2019-01-05T01:53:13.673Z,24.37
2019-01-05T01:56:02.347Z,26.13
2019-01-05T01:58:58.550Z,23.93
2019-01-05T02:01:45.506Z,23.77
2019-01-05T02:04:30.433Z,24.43
2019-01-05T02:07:34.337Z,23.00
2019-01-05T02:10:18.363Z,23.57
2019-01-05T02:13:08.088Z,22.77
2019-01-05T02:16:01.211Z,21.93
2019-01-05T02:19:10.192Z,22.47
2019-01-05T02:22:26.286Z,21.37
2019-01-05T02:25:55.658Z,19.90
2019-01-05T02:29:23.423Z,19.97
2019-01-05T02:32:34.080Z,18.77
2019-01-05T02:36:01.342Z,18.30
2019-01-05T02:39:11.657Z,17.17
2019-01-05T02:42:42.436Z,16.23
2019-01-05T02:46:03.615Z,15.57
2019-01-05T02:49:07.573Z,14.80
2019-01-05T02:52:27.566Z,13.93
2019-01-05T02:56:02.532Z,13.37
2019-01-05T02:59:52.226Z,13.53
2019-01-05T03:03:23.226Z,12.67
2019-01-05T03:07:17.601Z,12.77
2019-01-05T03:10:46.714Z,12.17
2019-01-05T03:14:20.137Z,13.47
2019-01-05T03:17:46.016Z,13.60
2019-01-05T03:21:22.886Z,13.73
2019-01-05T03:24:48.802Z,12.57
2019-01-05T03:28:14.423Z,12.63
2019-01-05T03:31:49.260Z,12.47
2019-01-05T03:35:04.870Z,13.20
2019-01-05T03:38:28.858Z,11.77
2019-01-05T03:41:37.692Z,12.33
2019-01-05T03:45:02.648Z,11.20
2019-01-05T03:48:59.622Z,12.00
2019-01-05T03:52:22.044Z,11.40
2019-01-05T03:56:04.932Z,9.87
2019-01-05T03:59:32.524Z,10.20
2019-01-05T04:03:04.209Z,10.07
2019-01-05T04:06:24.672Z,9.57
2019-01-05T04:12:43.679Z,8.87
2019-01-05T04:16:00.982Z,9.00
2019-01-05T04:19:41.781Z,9.80
2019-01-05T04:23:08.883Z,9.17
2019-01-05T04:26:34.186Z,9.07
2019-01-05T04:30:03.249Z,9.57
2019-01-05T04:33:11.035Z,8.73
2019-01-05T04:36:40.817Z,9.97
2019-01-05T04:40:00.242Z,9.30
2019-01-05T04:43:45.969Z,9.33
2019-01-05T04:47:12.104Z,9.00
2019-01-05T04:50:52.229Z,8.93
2019-01-05T04:54:19.703Z,8.30
2019-01-05T04:57:39.076Z,7.93
2019-01-05T05:01:33.127Z,8.10
2019-01-05T05:05:02.938Z,8.43
2019-01-05T05:08:43.913Z,8.77
2019-01-05T05:12:15.087Z,9.17
2019-01-05T05:16:01.929Z,10.30
2019-01-05T05:19:40.885Z,10.40
2019-01-05T05:23:33.614Z,11.67
2019-01-05T05:26:54.569Z,11.13
2019-01-05T05:30:20.187Z,11.80
2019-01-05T05:33:58.780Z,12.50
2019-01-05T05:37:13.658Z,11.03
2019-01-05T05:40:37.486Z,11.90
2019-01-05T05:44:00.657Z,11.00
2019-01-05T05:47:20.512Z,11.90
2019-01-05T05:50:43.449Z,10.87
2019-01-05T05:54:11.198Z,11.53
2019-01-05T05:57:45.714Z,11.17
2019-01-05T06:01:28.516Z,10.47
2019-01-05T06:04:55.360Z,10.53
2019-01-05T06:08:13.870Z,10.53
2019-01-05T06:12:02.447Z,9.63
2019-01-05T06:15:45.628Z,10.57
2019-01-05T06:19:20.963Z,10.30
2019-01-05T06:22:56.841Z,10.73
2019-01-05T06:26:10.588Z,11.77
2019-01-05T06:29:39.381Z,11.53
2019-01-05T06:33:03.115Z,12.00
2019-01-05T06:36:46.368Z,12.33
2019-01-05T06:40:19.749Z,12.93
2019-01-05T06:43:50.654Z,12.73
2019-01-05T06:47:27.532Z,12.87
2019-01-05T06:51:10.902Z,13.77
2019-01-05T06:54:49.535Z,11.93
2019-01-05T06:58:23.159Z,13.63
2019-01-05T07:02:15.891Z,12.37
2019-01-05T07:05:44.168Z,13.00
2019-01-05T07:09:22.463Z,12.23
2019-01-05T07:12:45.803Z,11.40
2019-01-05T07:15:57.668Z,10.70
2019-01-05T07:19:43.528Z,9.27
2019-01-05T07:23:14.324Z,8.57
2019-01-05T07:26:49.614Z,8.07
2019-01-05T07:30:11.711Z,7.47
2019-01-05T07:33:48.326Z,6.93
2019-01-05T07:37:09.667Z,5.83
2019-01-05T07:40:32.268Z,5.57
2019-01-05T07:43:49.267Z,5.20
2019-01-05T07:47:24.341Z,5.00
2019-01-05T07:51:00.988Z,4.93
2019-01-05T07:54:40.604Z,4.53
2019-01-05T07:58:03.022Z,4.23
2019-01-05T08:01:30.582Z,4.23
2019-01-05T08:04:52.963Z,4.23
2019-01-05T08:08:10.302Z,5.27
2019-01-05T08:11:41.646Z,4.93
2019-01-05T08:15:10.002Z,4.93
2019-01-05T08:18:40.011Z,4.70
2019-01-05T08:22:06.114Z,4.87
2019-01-05T08:25:40.627Z,4.80
2019-01-05T08:28:50.431Z,5.33
2019-01-05T08:32:22.686Z,5.50
2019-01-05T08:35:44.721Z,5.20
2019-01-05T08:39:46.923Z,4.53
2019-01-05T08:43:22.278Z,5.07
2019-01-05T08:46:44.444Z,5.90
2019-01-05T08:50:01.857Z,5.37
2019-01-05T08:53:40.182Z,5.30
2019-01-05T08:57:22.760Z,4.93
2019-01-05T09:00:50.786Z,5.00
2019-01-05T09:04:34.961Z,4.97
2019-01-05T09:07:59.913Z,4.57
2019-01-05T09:11:28.269Z,5.20
2019-01-05T09:14:53.336Z,5.17
2019-01-05T09:18:29.412Z,4.43
2019-01-05T09:22:04.177Z,4.73
2019-01-05T09:25:42.134Z,5.23
2019-01-05T09:29:48.859Z,5.40
2019-01-05T09:33:06.738Z,4.60
2019-01-05T09:36:33.882Z,4.67
2019-01-05T09:40:02.353Z,4.80
2019-01-05T09:43:42.779Z,4.53
2019-01-05T09:47:24.508Z,4.57
2019-01-05T09:50:50.050Z,3.83
2019-01-05T09:54:43.958Z,3.70
2019-01-05T09:58:19.248Z,3.20
2019-01-05T10:01:47.466Z,3.60
2019-01-05T10:05:40.696Z,3.63
2019-01-05T10:09:33.517Z,3.03
2019-01-05T10:13:04.322Z,3.97
2019-01-05T10:16:46.523Z,3.57
2019-01-05T10:20:27.302Z,3.63
2019-01-05T10:24:29.483Z,3.50
2019-01-05T10:27:38.809Z,3.27
2019-01-05T10:30:59.445Z,3.60
2019-01-05T10:34:35.909Z,3.63
2019-01-05T10:37:52.813Z,4.33
2019-01-05T10:41:32.273Z,3.37
2019-01-05T10:44:37.509Z,3.27
2019-01-05T10:48:19.552Z,3.10
2019-01-05T10:51:47.940Z,3.23
2019-01-05T10:55:15.674Z,5.23
2019-01-05T10:58:55.716Z,3.37
2019-01-05T11:02:36.170Z,3.67
2019-01-05T11:05:51.563Z,3.60
2019-01-05T11:09:55.587Z,3.90
2019-01-05T11:13:34.090Z,3.83
2019-01-05T11:17:09.506Z,3.40
2019-01-05T11:20:35.863Z,3.93
2019-01-05T11:24:05.707Z,3.60
2019-01-05T11:27:33.413Z,3.67
2019-01-05T11:31:00.583Z,3.67
2019-01-05T11:34:40.588Z,3.90
2019-01-05T11:38:10.577Z,3.03
2019-01-05T11:41:48.512Z,3.00
2019-01-05T11:45:10.588Z,3.80
2019-01-05T11:48:52.466Z,3.43
2019-01-05T11:52:14.190Z,3.27
2019-01-05T11:55:27.457Z,3.27
2019-01-05T11:58:53.537Z,3.63
2019-01-05T12:02:24.764Z,3.87
2019-01-05T12:05:55.712Z,3.70
2019-01-05T12:09:26.443Z,4.00
2019-01-05T12:13:00.456Z,3.33
2019-01-05T12:16:30.109Z,4.53
2019-01-05T12:19:53.029Z,5.40
2019-01-05T12:23:50.902Z,5.03
2019-01-05T12:27:20.658Z,4.60
2019-01-05T12:31:12.326Z,5.07
2019-01-05T12:34:46.770Z,5.10
2019-01-05T12:38:23.686Z,6.13
2019-01-05T12:42:03.722Z,4.63
2019-01-05T12:45:38.446Z,5.10
2019-01-05T12:49:14.692Z,5.07
2019-01-05T12:52:46.026Z,4.83
2019-01-05T12:56:09.499Z,4.27
2019-01-05T12:59:50.563Z,4.27
2019-01-05T13:03:34.821Z,3.97
2019-01-05T13:07:02.819Z,3.57
2019-01-05T13:10:23.071Z,3.30
2019-01-05T13:13:44.254Z,3.90
2019-01-05T13:17:08.762Z,3.93
2019-01-05T13:20:21.135Z,3.63
2019-01-05T13:24:04.365Z,4.23
2019-01-05T13:27:26.656Z,3.40
2019-01-05T13:30:54.762Z,3.57
2019-01-05T13:34:18.045Z,3.50
2019-01-05T13:37:55.243Z,3.10
2019-01-05T13:41:27.355Z,3.13
2019-01-05T13:45:06.876Z,2.83
2019-01-05T13:48:40.102Z,2.77
2019-01-05T13:52:17.197Z,2.77
2019-01-05T13:55:17.727Z,3.20
2019-01-05T13:58:13.383Z,2.63
2019-01-05T14:00:59.160Z,3.00
2019-01-05T14:03:46.195Z,2.37
2019-01-05T14:06:32.506Z,2.97
2019-01-05T14:09:19.577Z,3.00
2019-01-05T14:12:10.480Z,2.37
2019-01-05T14:15:02.355Z,2.57
2019-01-05T14:17:48.959Z,2.63
2019-01-05T14:20:40.180Z,2.60
2019-01-05T14:23:40.447Z,2.90
2019-01-05T14:26:31.205Z,2.53
2019-01-05T14:29:31.088Z,2.50
2019-01-05T14:32:17.453Z,2.53
2019-01-05T14:35:09.754Z,2.27
2019-01-05T14:38:13.213Z,2.67
2019-01-05T14:41:05.706Z,2.20
2019-01-05T14:43:52.409Z,2.27
2019-01-05T14:46:38.864Z,2.23
2019-01-05T14:49:27.185Z,2.20
2019-01-05T14:52:13.867Z,2.60
2019-01-05T14:55:00.725Z,2.43
2019-01-05T14:57:47.101Z,2.40
2019-01-05T15:00:30.040Z,2.50
2019-01-05T15:03:36.275Z,2.87
2019-01-05T15:06:23.097Z,2.60
2019-01-05T15:09:10.075Z,2.93
2019-01-05T15:12:16.066Z,2.30
2019-01-05T15:15:13.510Z,2.73
2019-01-05T15:18:10.816Z,2.50
2019-01-05T15:20:57.804Z,2.90
2019-01-05T15:23:44.816Z,2.73
2019-01-05T15:26:31.575Z,2.43
2019-01-05T15:29:28.025Z,2.90
2019-01-05T15:32:17.721Z,2.77
2019-01-05T15:35:04.478Z,3.30
2019-01-05T15:37:55.353Z,3.53
2019-01-05T15:40:43.654Z,3.27
2019-01-05T15:43:31.804Z,4.00
2019-01-05T15:46:19.147Z,4.30
2019-01-05T15:49:10.562Z,3.80
2019-01-05T15:52:01.905Z,4.13
2019-01-05T15:54:48.589Z,20.73
2019-01-05T15:57:35.640Z,4.33
2019-01-05T16:00:39.918Z,3.67
2019-01-05T16:03:26.428Z,3.77
2019-01-05T16:06:12.989Z,3.97
2019-01-05T16:08:57.100Z,3.80
2019-01-05T16:11:43.864Z,3.70
2019-01-05T16:14:30.635Z,3.83
2019-01-05T16:17:23.360Z,4.10
2019-01-05T16:20:10.273Z,4.40
2019-01-05T16:22:58.609Z,4.93
2019-01-05T16:25:58.914Z,5.17
2019-01-05T16:28:58.713Z,4.97
2019-01-05T16:31:45.216Z,5.40
2019-01-05T16:34:42.518Z,5.73
2019-01-05T16:37:29.053Z,6.13
2019-01-05T16:40:16.581Z,6.10
2019-01-05T16:43:02.955Z,6.07
2019-01-05T16:45:45.114Z,6.43
2019-01-05T16:48:32.012Z,6.07
2019-01-05T16:51:23.684Z,5.17
2019-01-05T16:54:22.439Z,5.13
2019-01-05T16:57:20.011Z,5.77
2019-01-05T17:00:07.646Z,5.93
2019-01-05T17:03:10.994Z,5.47
2019-01-05T17:05:57.451Z,5.73
2019-01-05T17:08:55.426Z,5.70
2019-01-05T17:11:46.505Z,5.47
2019-01-05T17:14:33.067Z,5.60
2019-01-05T17:17:30.613Z,5.63
2019-01-05T17:20:30.551Z,5.90
2019-01-05T17:23:31.044Z,5.93
2019-01-05T17:26:37.679Z,5.37
2019-01-05T17:29:26.130Z,5.13
2019-01-05T17:32:13.408Z,5.87
2019-01-05T17:35:13.215Z,5.37
2019-01-05T17:38:01.635Z,5.30
2019-01-05T17:40:48.110Z,5.60
2019-01-05T17:43:34.520Z,5.47
2019-01-05T17:46:21.622Z,5.03
2019-01-05T17:49:08.418Z,5.73
2019-01-05T17:51:56.597Z,5.67
2019-01-05T17:54:47.816Z,5.50
2019-01-05T17:57:43.133Z,5.60
2019-01-05T18:00:29.595Z,5.43
2019-01-05T18:03:16.525Z,4.57
2019-01-05T18:06:05.530Z,5.37
2019-01-05T18:08:48.744Z,10.43
2019-01-05T18:11:35.133Z,5.30
2019-01-05T18:14:35.203Z,4.47
2019-01-05T18:17:33.552Z,4.23
2019-01-05T18:20:21.516Z,4.00
2019-01-05T18:23:08.489Z,4.17
2019-01-05T18:26:05.824Z,3.87
2019-01-05T18:28:52.675Z,4.27
2019-01-05T18:31:36.367Z,4.03
2019-01-05T18:34:23.180Z,4.80
2019-01-05T18:37:12.502Z,3.53
2019-01-05T18:39:57.089Z,4.53
2019-01-05T18:42:45.988Z,4.37
2019-01-05T18:45:40.751Z,4.97
2019-01-05T18:48:27.019Z,5.00
2019-01-05T18:51:08.704Z,5.27
2019-01-05T18:53:55.980Z,5.60
2019-01-05T18:56:44.135Z,6.40
2019-01-05T18:59:29.852Z,5.17
2019-01-05T19:02:20.881Z,6.43
2019-01-05T19:05:07.665Z,6.33
2019-01-05T19:08:04.988Z,6.13
2019-01-05T19:10:59.120Z,6.10
2019-01-05T19:13:47.681Z,6.70
2019-01-05T19:16:36.072Z,6.23
2019-01-05T19:19:21.779Z,6.50
2019-01-05T19:22:08.663Z,6.03
2019-01-05T19:24:58.784Z,7.30
2019-01-05T19:27:50.040Z,6.10
2019-01-05T19:30:41.175Z,6.10
2019-01-05T19:33:38.292Z,6.20
2019-01-05T19:36:44.904Z,7.37
2019-01-05T19:39:33.009Z,7.03
2019-01-05T19:42:33.419Z,6.83
2019-01-05T19:45:19.875Z,7.90
2019-01-05T19:48:17.617Z,8.10
2019-01-05T19:51:08.945Z,7.57
2019-01-05T19:54:14.904Z,8.13
2019-01-05T19:57:01.322Z,8.07
2019-01-05T20:00:04.531Z,8.63
2019-01-05T20:02:47.052Z,8.43
2019-01-05T20:05:33.562Z,9.70
2019-01-05T20:08:20.249Z,9.20
2019-01-05T20:11:10.010Z,9.43
2019-01-05T20:13:49.294Z,8.40
2019-01-05T20:16:38.102Z,8.60
2019-01-05T20:19:41.315Z,9.43
2019-01-05T20:22:22.726Z,8.57
2019-01-05T20:25:09.508Z,8.83
2019-01-05T20:28:12.789Z,10.03
2019-01-05T20:31:03.634Z,7.87
2019-01-05T20:33:50.353Z,8.63
2019-01-05T20:36:42.045Z,7.70
2019-01-05T20:39:37.886Z,7.73
2019-01-05T20:42:24.601Z,7.77
2019-01-05T20:45:11.290Z,8.50
2019-01-05T20:48:14.400Z,11.30
2019-01-05T20:51:08.874Z,7.83
2019-01-05T20:54:06.005Z,8.77
2019-01-05T20:57:06.359Z,8.20
2019-01-05T20:59:53.399Z,8.00
2019-01-05T21:02:53.704Z,7.70
2019-01-05T21:05:43.709Z,8.37
2019-01-05T21:08:30.337Z,7.10
2019-01-05T21:11:24.680Z,22.67
2019-01-05T21:14:11.522Z,7.73
2019-01-05T21:16:59.812Z,7.33
2019-01-05T21:19:44.567Z,7.70
2019-01-05T21:22:35.553Z,8.27
2019-01-05T21:25:22.193Z,7.50
2019-01-05T21:28:19.567Z,7.17
2019-01-05T21:31:12.077Z,7.27
2019-01-05T21:33:58.937Z,7.83
2019-01-05T21:36:55.161Z,8.93
2019-01-05T21:39:42.094Z,7.33
2019-01-05T21:42:48.497Z,8.73
2019-01-05T21:45:51.956Z,7.13
2019-01-05T21:48:38.789Z,7.27
2019-01-05T21:51:25.574Z,7.20
2019-01-05T21:54:09.801Z,7.67
2019-01-05T21:56:56.990Z,7.87
2019-01-05T21:59:44.039Z,7.73
2019-01-05T22:02:35.056Z,5.87
2019-01-05T22:05:21.898Z,6.53
2019-01-05T22:08:11.470Z,5.57
2019-01-05T22:10:54.228Z,6.40
2019-01-05T22:13:45.754Z,5.80
2019-01-05T22:16:37.135Z,6.37
2019-01-05T22:19:37.958Z,5.37
2019-01-05T22:22:22.550Z,5.27
2019-01-05T22:25:23.119Z,5.10
2019-01-05T22:28:12.622Z,4.97
2019-01-05T22:30:59.297Z,5.40
2019-01-05T22:34:02.934Z,4.90
2019-01-05T22:36:50.473Z,4.60
2019-01-05T22:39:46.395Z,4.80
2019-01-05T22:42:33.289Z,4.33
2019-01-05T22:45:12.571Z,4.63
2019-01-05T22:48:01.163Z,4.77
2019-01-05T22:50:48.550Z,4.63
2019-01-05T22:53:40.434Z,4.50
2019-01-05T22:56:29.373Z,5.00
2019-01-05T22:59:32.441Z,4.97
2019-01-05T23:02:19.269Z,5.77
2019-01-05T23:05:13.255Z,5.77
2019-01-05T23:08:02.056Z,6.27
2019-01-05T23:10:48.532Z,4.90
2019-01-05T23:13:39.309Z,4.93
2019-01-05T23:16:23.109Z,7.30
2019-01-05T23:19:26.159Z,4.80
2019-01-05T23:22:20.761Z,6.37
2019-01-05T23:25:07.089Z,4.83
2019-01-05T23:28:13.387Z,5.37
2019-01-05T23:31:01.590Z,5.37
2019-01-05T23:34:04.708Z,5.13
2019-01-05T23:37:04.833Z,5.23
2019-01-05T23:40:11.099Z,5.07
2019-01-05T23:42:57.782Z,5.33
2019-01-05T23:45:45.344Z,5.07
2019-01-05T23:48:51.683Z,5.20
2019-01-05T23:51:39.659Z,4.70
2019-01-05T23:54:39.819Z,5.83
2019-01-05T23:57:26.531Z,4.60
